Time;durP1;ratioP1;P1;durP2;ratioP2;P2;SDS_P1;SDS_P2;PMS_P1;PMS_P2;Temp;Humidity;BMP_temperature;BMP_pressure;BME280_temperature;BME280_humidity;BME280_pressure;Samples;Min_cycle;Max_cycle;Signal;HPM_P1;HPM_P2
2022/06/12 00:01:57;;;;;;;29.63;5.40;;;;;;;13.45;100.00;101534.31;4877852;29;20028;-86
2022/06/12 00:04:23;;;;;;;35.45;5.10;;;;;;;13.52;100.00;101545.97;4892270;29;20111;-87
2022/06/12 00:06:49;;;;;;;27.40;4.85;;;;;;;13.51;100.00;101536.22;4875922;29;20033;-87
2022/06/12 00:09:15;;;;;;;34.15;5.82;;;;;;;13.46;100.00;101527.03;4876317;29;20060;-87
2022/06/12 00:11:41;;;;;;;27.88;5.05;;;;;;;13.46;100.00;101538.66;4875062;29;20059;-87
2022/06/12 00:14:07;;;;;;;28.95;5.22;;;;;;;13.47;100.00;101542.19;4857484;29;20049;-86
2022/06/12 00:16:34;;;;;;;32.13;5.13;;;;;;;13.35;100.00;101528.44;4886987;29;20037;-87
2022/06/12 00:19:01;;;;;;;30.95;5.75;;;;;;;13.40;100.00;101531.34;4891258;29;20039;-87
2022/06/12 00:21:31;;;;;;;28.25;4.82;;;;;;;13.39;100.00;101535.09;4891132;29;20064;-87
2022/06/12 00:24:04;;;;;;;27.23;5.18;;;;;;;13.35;100.00;101534.66;4872923;29;20065;-86
2022/06/12 00:26:35;;;;;;;25.75;5.07;;;;;;;13.39;100.00;101545.91;4872638;29;20030;-87
2022/06/12 00:29:13;;;;;;;31.00;5.60;;;;;;;13.24;100.00;101539.75;4858083;29;20081;-87
2022/06/12 00:31:52;;;;;;;33.42;6.90;;;;;;;13.32;100.00;101537.78;4856231;29;20055;-87
2022/06/12 00:34:22;;;;;;;28.00;4.82;;;;;;;13.26;100.00;101526.91;4854954;29;20041;-87
2022/06/12 00:36:48;;;;;;;26.38;5.43;;;;;;;13.06;100.00;101494.34;4872909;29;20025;-86
2022/06/12 00:39:16;;;;;;;28.02;5.10;;;;;;;13.29;100.00;101540.03;4856572;29;20061;-88
2022/06/12 00:41:45;;;;;;;31.88;5.90;;;;;;;13.31;100.00;101527.13;4872929;29;20030;-87
2022/06/12 00:44:14;;;;;;;31.35;5.40;;;;;;;13.22;100.00;101528.31;4858651;29;20377;-87
2022/06/12 00:46:50;;;;;;;32.22;6.00;;;;;;;13.20;100.00;101533.09;4883660;29;20036;-86
2022/06/12 00:49:31;;;;;;;33.80;5.57;;;;;;;13.29;100.00;101526.53;4857713;29;20029;-87
2022/06/12 00:52:12;;;;;;;33.60;5.45;;;;;;;13.21;100.00;101518.53;4857069;29;20029;-86
2022/06/12 00:54:41;;;;;;;35.55;6.05;;;;;;;13.31;100.00;101527.13;4873369;29;20476;-86
2022/06/12 00:57:08;;;;;;;25.80;5.55;;;;;;;13.24;100.00;101512.72;4871782;29;20029;-87
2022/06/12 00:59:44;;;;;;;37.42;6.88;;;;;;;13.33;100.00;101520.50;4871728;29;20092;-87
2022/06/12 01:02:14;;;;;;;36.05;6.30;;;;;;;13.38;100.00;101528.03;4856280;29;20053;-86
2022/06/12 01:07:32;;;;;;;33.33;6.15;;;;;;;13.29;100.00;101508.44;4884049;29;20105;-86
2022/06/12 01:10:01;;;;;;;31.33;5.83;;;;;;;13.35;100.00;101517.63;4857026;29;20086;-85
2022/06/12 01:12:31;;;;;;;34.00;6.00;;;;;;;13.35;100.00;101512.22;4858595;29;20089;-85
2022/06/12 01:15:00;;;;;;;32.35;5.70;;;;;;;13.25;100.00;101484.72;4873664;29;20479;-87
2022/06/12 01:17:27;;;;;;;26.35;5.63;;;;;;;13.40;100.00;101509.72;4871592;29;20034;-86
2022/06/12 01:19:59;;;;;;;32.97;5.97;;;;;;;13.45;100.00;101523.50;4842182;29;20061;-86
2022/06/12 01:22:57;;;;;;;28.58;5.38;;;;;;;13.36;100.00;101509.31;4868475;29;20029;-87
2022/06/12 01:26:11;;;;;;;33.15;6.13;;;;;;;13.41;100.00;101519.53;4857708;29;20025;-86
2022/06/12 01:29:18;;;;;;;26.45;4.88;;;;;;;13.48;100.00;101519.56;4856736;29;20037;-86
2022/06/12 01:31:56;;;;;;;30.85;5.78;;;;;;;13.52;100.00;101513.53;4875108;29;20025;-87
2022/06/12 01:34:50;;;;;;;34.15;6.15;;;;;;;13.54;100.00;101510.63;4857321;29;20041;-86
2022/06/12 01:37:22;;;;;;;35.78;5.97;;;;;;;13.60;100.00;101510.66;4861537;29;20123;-86
2022/06/12 01:40:16;;;;;;;33.20;5.55;;;;;;;13.67;100.00;101515.25;4893027;29;20024;-87
2022/06/12 01:42:44;;;;;;;37.85;6.85;;;;;;;13.68;100.00;101514.25;4883716;29;20025;-87
2022/06/12 01:45:26;;;;;;;28.73;5.57;;;;;;;13.65;100.00;101501.13;4876350;29;20391;-87
2022/06/12 01:48:20;;;;;;;24.08;5.47;;;;;;;13.74;100.00;101500.75;4893269;29;20418;-86
2022/06/12 01:50:54;;;;;;;39.95;6.03;;;;;;;13.78;100.00;101498.47;4872703;29;20040;-88
2022/06/12 01:53:42;;;;;;;31.30;5.93;;;;;;;13.83;100.00;101491.38;4862319;29;20065;-88
2022/06/12 01:56:14;;;;;;;33.72;5.80;;;;;;;13.87;100.00;101494.50;4880624;29;20059;-89
2022/06/12 01:58:53;;;;;;;30.58;5.25;;;;;;;13.92;100.00;101502.84;4876483;29;20049;-86
2022/06/12 02:01:27;;;;;;;20.67;4.40;;;;;;;13.95;100.00;101491.63;4860432;29;20026;-88
2022/06/12 02:04:01;;;;;;;30.85;4.80;;;;;;;13.89;100.00;101489.75;4876759;29;20078;-86
2022/06/12 02:06:36;;;;;;;29.50;5.07;;;;;;;13.82;100.00;101491.59;4880643;29;20086;-86
2022/06/12 02:09:12;;;;;;;29.83;5.40;;;;;;;13.65;100.00;101457.84;4880206;29;20061;-86
2022/06/12 02:15:08;;;;;;;30.13;4.90;;;;;;;13.81;100.00;101479.13;4854226;29;20057;-87
2022/06/12 02:17:47;;;;;;;24.92;5.38;;;;;;;13.76;100.00;101470.78;4874886;29;20045;-87
2022/06/12 02:20:18;;;;;;;22.73;5.00;;;;;;;13.74;100.00;101473.69;4876057;29;20034;-87
2022/06/12 02:22:44;;;;;;;25.15;4.78;;;;;;;13.77;100.00;101481.38;4876034;29;20097;-86
2022/06/12 02:25:13;;;;;;;23.52;4.57;;;;;;;13.79;100.00;101492.00;4859065;29;20041;-86
2022/06/12 02:28:11;;;;;;;25.45;5.18;;;;;;;13.80;100.00;101491.78;4875910;29;20101;-87
2022/06/12 02:30:41;;;;;;;29.02;5.90;;;;;;;13.61;100.00;101474.47;4876626;29;20484;-87
2022/06/12 02:33:13;;;;;;;34.13;6.25;;;;;;;13.60;100.00;101455.75;4860496;29;20029;-86
2022/06/12 02:35:49;;;;;;;26.83;5.30;;;;;;;13.72;100.00;101474.94;4891636;29;20029;-86
2022/06/12 02:38:23;;;;;;;31.33;5.43;;;;;;;13.71;100.00;101474.09;4864051;29;20532;-88
2022/06/12 02:40:57;;;;;;;35.20;5.40;;;;;;;13.85;100.00;101488.50;4889288;29;20020;-86
2022/06/12 02:43:27;;;;;;;29.38;5.50;;;;;;;13.77;100.00;101461.59;4863965;29;20082;-88
2022/06/12 02:46:02;;;;;;;29.85;5.80;;;;;;;13.84;100.00;101474.13;4875142;29;20064;-88
2022/06/12 02:48:28;;;;;;;33.53;5.57;;;;;;;13.96;100.00;101482.47;4864312;29;20056;-86
2022/06/12 02:51:02;;;;;;;27.75;4.95;;;;;;;13.86;100.00;101455.81;4858255;29;20045;-87
2022/06/12 02:53:32;;;;;;;28.77;5.45;;;;;;;14.17;100.00;101467.09;4859649;29;20025;-87
2022/06/12 02:56:17;;;;;;;31.35;5.50;;;;;;;14.41;100.00;101474.63;4875865;29;20039;-87
2022/06/12 02:59:01;;;;;;;35.22;6.03;;;;;;;14.68;100.00;101469.22;4859589;29;20487;-86
2022/06/12 03:01:37;;;;;;;31.00;5.95;;;;;;;14.37;100.00;101453.56;4860078;29;20065;-87
2022/06/12 03:04:15;;;;;;;37.53;6.43;;;;;;;14.31;100.00;101463.38;4880664;29;20068;-87
2022/06/12 03:06:41;;;;;;;31.70;6.15;;;;;;;14.17;100.00;101453.56;4877278;29;20033;-87
2022/06/12 03:09:07;;;;;;;29.48;5.78;;;;;;;14.15;100.00;101458.38;4861567;29;20029;-88
2022/06/12 03:11:40;;;;;;;28.25;5.47;;;;;;;14.08;100.00;101461.06;4845478;29;20041;-88
2022/06/12 03:14:10;;;;;;;33.38;5.35;;;;;;;14.04;100.00;101451.69;4878551;29;20078;-86
2022/06/12 03:16:37;;;;;;;26.35;5.13;;;;;;;14.07;100.00;101459.38;4866538;29;20022;-88
2022/06/12 03:19:23;;;;;;;35.13;6.55;;;;;;;14.07;100.00;101446.69;4860700;29;20036;-87
2022/06/12 03:22:05;;;;;;;31.05;6.18;;;;;;;14.48;100.00;101459.19;4860811;29;20033;-88
2022/06/12 03:24:34;;;;;;;33.83;5.50;;;;;;;15.37;100.00;101451.53;4876337;29;20045;-88
2022/06/12 03:27:08;;;;;;;24.27;5.38;;;;;;;16.12;100.00;101443.59;4869740;29;20121;-87
2022/06/12 03:29:47;;;;;;;;;;;;;;;16.49;100.00;101413.84;4887631;29;20035;-87
2022/06/12 03:32:31;;;;;;;35.35;6.03;;;;;;;17.04;100.00;101446.56;4876387;29;19922;-88
2022/06/12 03:35:21;;;;;;;32.38;5.13;;;;;;;17.59;100.00;101443.78;4874216;29;20111;-85
2022/06/12 03:37:59;;;;;;;24.52;5.07;;;;;;;18.00;100.00;101448.44;4881099;29;20037;-89
2022/06/12 03:41:02;;;;;;;23.30;5.57;;;;;;;18.43;100.00;101457.41;4880819;29;20037;-88
2022/06/12 03:43:40;;;;;;;25.05;5.15;;;;;;;18.25;100.00;101431.94;4874109;29;20041;-86
2022/06/12 03:46:29;;;;;;;24.52;4.65;;;;;;;18.63;100.00;101452.44;4874764;29;20365;-83
2022/06/12 03:48:59;;;;;;;22.83;5.68;;;;;;;18.68;100.00;101438.94;4889459;29;20049;-83
2022/06/12 03:51:31;;;;;;;30.27;5.95;;;;;;;18.75;100.00;101442.41;4872644;29;20035;-86
2022/06/12 03:54:03;;;;;;;25.38;5.40;;;;;;;19.18;100.00;101443.88;4870668;29;20022;-81
2022/06/12 03:59:43;;;;;;;26.40;5.28;;;;;;;19.64;100.00;101444.84;4864057;29;20070;-81
2022/06/12 04:02:15;;;;;;;28.25;5.13;;;;;;;19.74;100.00;101441.47;4853145;29;20029;-82
2022/06/12 04:04:44;;;;;;;22.33;4.47;;;;;;;20.04;100.00;101440.38;4864728;29;20340;-82
2022/06/12 04:07:13;;;;;;;23.73;5.07;;;;;;;20.06;100.00;101432.75;4861427;29;20037;-83
2022/06/12 04:09:45;;;;;;;29.30;5.18;;;;;;;19.64;100.00;101423.00;4879460;29;20455;-82
2022/06/12 04:12:33;;;;;;;32.35;5.97;;;;;;;18.42;100.00;101448.41;4881796;29;20109;-80
2022/06/12 04:15:05;;;;;;;22.00;5.50;;;;;;;18.13;100.00;101439.25;4881644;29;20049;-82
2022/06/12 04:17:30;;;;;;;27.73;4.78;;;;;;;18.37;100.00;101422.94;4873890;29;20053;-81
2022/06/12 04:19:58;;;;;;;27.58;5.20;;;;;;;18.35;100.00;101435.97;4830345;29;20076;-81
2022/06/12 04:22:32;;;;;;;21.50;4.70;;;;;;;17.96;100.00;101449.16;4830795;29;20034;-82
2022/06/12 04:25:07;;;;;;;27.58;5.28;;;;;;;17.25;100.00;101440.66;4853917;29;20026;-84
2022/06/12 04:27:37;;;;;;;29.42;5.18;;;;;;;16.81;100.00;101442.59;4852186;29;20034;-83
2022/06/12 04:30:22;;;;;;;28.23;5.20;;;;;;;16.56;100.00;101436.38;4869101;29;20036;-85
2022/06/12 04:32:48;;;;;;;30.60;5.50;;;;;;;16.36;100.00;101433.81;4886208;29;20021;-83
2022/06/12 04:35:16;;;;;;;22.15;5.13;;;;;;;16.10;100.00;101435.69;4868024;29;20041;-85
2022/06/12 04:37:42;;;;;;;25.67;5.28;;;;;;;15.92;100.00;101427.47;4885312;29;20040;-84
2022/06/12 04:40:24;;;;;;;27.55;5.50;;;;;;;15.89;100.00;101430.59;4852563;29;20033;-84
2022/06/12 04:42:53;;;;;;;27.15;5.00;;;;;;;15.76;100.00;101417.97;4855087;29;20408;-83
2022/06/12 04:45:19;;;;;;;26.65;5.43;;;;;;;15.74;100.00;101442.59;4846027;29;20057;-83
2022/06/12 04:47:44;;;;;;;26.63;4.70;;;;;;;15.66;100.00;101440.16;4861500;29;20025;-81
2022/06/12 04:50:15;;;;;;;24.48;4.95;;;;;;;15.65;100.00;101429.47;4869275;29;20300;-82
2022/06/12 04:52:40;;;;;;;33.83;4.65;;;;;;;15.64;100.00;101430.53;4867780;29;20025;-83
2022/06/12 04:55:06;;;;;;;30.35;5.85;;;;;;;15.55;100.00;101429.13;4871267;29;20044;-82
2022/06/12 04:57:32;;;;;;;28.80;5.60;;;;;;;15.62;100.00;101427.19;4870365;29;20097;-85
2022/06/12 04:59:57;;;;;;;22.75;5.43;;;;;;;15.62;100.00;101441.59;4864310;29;20065;-84
2022/06/12 05:02:23;;;;;;;23.25;4.95;;;;;;;15.62;100.00;101440.75;4866367;29;20029;-83
2022/06/12 05:04:49;;;;;;;35.08;5.68;;;;;;;15.57;100.00;101435.19;4857132;29;20048;-84
2022/06/12 05:07:15;;;;;;;24.70;5.50;;;;;;;15.35;100.00;101413.78;4871801;29;20029;-83
2022/06/12 05:09:41;;;;;;;28.27;5.60;;;;;;;15.54;100.00;101435.59;4870527;29;20045;-83
2022/06/12 05:12:09;;;;;;;25.23;4.80;;;;;;;15.57;100.00;101430.56;4855580;29;20089;-86
2022/06/12 05:14:34;;;;;;;24.02;4.80;;;;;;;15.54;100.00;101422.03;4872829;29;20025;-83
2022/06/12 05:17:04;;;;;;;27.92;5.60;;;;;;;15.60;100.00;101427.44;4855396;29;20105;-84
2022/06/12 05:19:34;;;;;;;25.30;5.13;;;;;;;15.63;100.00;101418.00;4872072;29;20054;-84
2022/06/12 05:22:01;;;;;;;24.08;5.03;;;;;;;15.68;100.00;101435.34;4871248;29;20051;-83
2022/06/12 05:24:27;;;;;;;28.27;5.10;;;;;;;15.67;100.00;101427.44;4863457;29;20069;-84
2022/06/12 05:26:52;;;;;;;26.63;6.00;;;;;;;15.63;100.00;101421.56;4880260;29;20028;-85
2022/06/12 05:29:24;;;;;;;23.67;5.32;;;;;;;15.73;100.00;101434.69;4867702;29;20048;-85
2022/06/12 05:31:50;;;;;;;25.75;5.35;;;;;;;15.53;100.00;101410.38;4876318;29;20084;-84
2022/06/12 05:34:16;;;;;;;24.17;5.60;;;;;;;15.76;100.00;101441.53;4848172;29;20097;-85
2022/06/12 05:36:42;;;;;;;22.02;5.20;;;;;;;15.88;100.00;101446.06;4882620;29;20032;-85
2022/06/12 05:39:08;;;;;;;25.50;5.72;;;;;;;15.85;100.00;101440.25;4890267;29;20009;-86
2022/06/12 05:41:33;;;;;;;32.83;5.35;;;;;;;15.90;100.00;101438.56;4904378;29;20052;-85
2022/06/12 05:43:59;;;;;;;24.20;5.30;;;;;;;16.02;100.00;101437.84;4862042;29;20532;-83
2022/06/12 05:46:24;;;;;;;28.20;5.20;;;;;;;16.10;100.00;101430.25;4844278;29;20037;-84
2022/06/12 05:48:50;;;;;;;25.13;4.60;;;;;;;16.25;100.00;101432.63;4847328;29;20033;-84
2022/06/12 05:51:17;;;;;;;27.45;5.45;;;;;;;16.28;100.00;101444.94;4858984;29;20030;-85
2022/06/12 05:53:43;;;;;;;24.98;4.95;;;;;;;16.21;100.00;101432.25;4890002;29;20021;-84
2022/06/12 05:56:13;;;;;;;22.25;4.78;;;;;;;16.25;100.00;101434.53;4891315;29;20033;-83
2022/06/12 05:58:39;;;;;;;28.60;5.35;;;;;;;16.29;100.00;101443.88;4879510;29;20168;-85
2022/06/12 06:01:06;;;;;;;26.75;5.30;;;;;;;16.45;100.00;101437.91;4854787;29;20465;-84
2022/06/12 06:03:32;;;;;;;30.02;5.75;;;;;;;16.44;100.00;101447.13;4856128;29;20030;-84
2022/06/12 06:05:57;;;;;;;29.05;5.22;;;;;;;16.53;100.00;101431.38;4883456;29;20029;-84
2022/06/12 06:08:23;;;;;;;31.30;5.32;;;;;;;16.63;100.00;101439.84;4886360;29;20033;-85
2022/06/12 06:10:48;;;;;;;26.70;4.70;;;;;;;16.67;100.00;101430.19;4888550;29;20037;-85
2022/06/12 06:13:14;;;;;;;21.38;5.03;;;;;;;16.71;100.00;101428.66;4886018;29;20041;-85
2022/06/12 06:15:40;;;;;;;22.63;5.22;;;;;;;16.69;100.00;101436.25;4872516;29;20029;-85
2022/06/12 06:18:07;;;;;;;27.35;5.43;;;;;;;16.69;100.00;101428.09;4857108;29;20040;-83
2022/06/12 06:20:35;;;;;;;23.58;4.72;;;;;;;16.60;100.00;101413.13;4856718;29;20053;-85
2022/06/12 06:23:01;;;;;;;27.13;6.75;;;;;;;16.76;100.00;101441.63;4856558;29;20066;-85
2022/06/12 06:25:29;;;;;;;30.88;5.65;;;;;;;16.80;100.00;101429.25;4889201;29;20352;-85
2022/06/12 06:27:56;;;;;;;31.58;6.13;;;;;;;16.82;100.00;101438.00;4872378;29;20100;-84
2022/06/12 06:30:23;;;;;;;26.70;5.20;;;;;;;16.90;100.00;101435.81;4858343;29;20043;-83
2022/06/12 06:32:49;;;;;;;25.65;4.88;;;;;;;16.88;100.00;101437.09;4865192;29;20040;-84
2022/06/12 06:35:15;;;;;;;23.40;5.05;;;;;;;17.05;100.00;101443.63;4873276;29;20029;-84
2022/06/12 06:37:41;;;;;;;25.10;4.93;;;;;;;17.16;100.00;101443.94;4872806;29;20025;-84
2022/06/12 06:40:10;;;;;;;28.00;5.22;;;;;;;17.38;100.00;101432.34;4861131;29;20045;-84
2022/06/12 06:42:35;;;;;;;25.30;5.07;;;;;;;17.41;100.00;101424.75;4858935;29;20029;-83
2022/06/12 06:47:45;;;;;;;24.73;5.17;;;;;;;17.54;100.00;101440.91;4892397;29;20096;-83
2022/06/12 06:50:13;;;;;;;23.77;4.82;;;;;;;17.65;100.00;101442.88;4875798;29;20061;-85
2022/06/12 06:52:39;;;;;;;26.05;5.47;;;;;;;17.74;100.00;101429.75;4889803;29;20017;-84
2022/06/12 06:55:06;;;;;;;24.52;5.13;;;;;;;17.96;100.00;101443.72;4877245;29;20063;-84
2022/06/12 06:57:35;;;;;;;24.65;5.28;;;;;;;17.89;100.00;101410.31;4859627;29;20116;-84
2022/06/12 07:00:00;;;;;;;24.15;4.82;;;;;;;17.98;100.00;101411.63;4856037;29;20054;-81
2022/06/12 07:02:26;;;;;;;24.40;4.97;;;;;;;18.24;100.00;101434.88;4854668;29;20029;-82
2022/06/12 07:04:51;;;;;;;24.38;4.80;;;;;;;18.42;100.00;101431.25;4866809;29;20451;-84
2022/06/12 07:07:16;;;;;;;23.17;5.13;;;;;;;18.41;100.00;101433.13;4873090;29;20056;-84
2022/06/12 07:09:42;;;;;;;19.98;4.32;;;;;;;18.51;100.00;101435.28;4858345;29;20064;-83
2022/06/12 07:12:08;;;;;;;20.80;5.18;;;;;;;18.38;100.00;101436.34;4885576;29;20044;-84
2022/06/12 07:14:33;;;;;;;25.02;4.90;;;;;;;18.05;100.00;101401.47;4873879;29;20056;-83
2022/06/12 07:17:00;;;;;;;25.13;4.93;;;;;;;18.15;100.00;101441.75;4867537;29;20041;-83
2022/06/12 07:19:26;;;;;;;21.17;4.68;;;;;;;18.13;100.00;101443.88;4849726;29;20080;-84
2022/06/12 07:21:52;;;;;;;24.90;4.95;;;;;;;17.97;100.00;101394.44;4853617;29;20539;-83
2022/06/12 07:24:17;;;;;;;24.88;5.65;;;;;;;18.27;100.00;101439.84;4854615;29;20087;-83
2022/06/12 07:26:45;;;;;;;27.38;5.47;;;;;;;18.30;100.00;101439.38;4854807;29;20033;-81
2022/06/12 07:29:12;;;;;;;22.40;4.93;;;;;;;18.08;100.00;101433.69;4866710;29;20092;-84
2022/06/12 07:31:37;;;;;;;18.23;4.60;;;;;;;18.19;100.00;101432.88;4872843;29;20088;-84
2022/06/12 07:34:03;;;;;;;23.52;5.28;;;;;;;18.41;100.00;101435.00;4861335;29;20037;-84
2022/06/12 07:36:29;;;;;;;21.88;4.78;;;;;;;18.49;100.00;101442.84;4868889;29;20037;-82
2022/06/12 07:38:55;;;;;;;25.30;5.35;;;;;;;18.57;100.00;101434.31;4889489;29;20033;-83
2022/06/12 07:41:21;;;;;;;21.67;4.78;;;;;;;18.53;100.00;101433.13;4857196;29;20060;-83
2022/06/12 07:43:46;;;;;;;21.80;4.82;;;;;;;18.51;100.00;101446.19;4855032;29;20053;-85
2022/06/12 07:46:15;;;;;;;24.23;4.72;;;;;;;18.39;100.00;101453.50;4869850;29;20065;-84
2022/06/12 07:48:41;;;;;;;21.08;5.07;;;;;;;18.34;100.00;101434.28;4855326;29;20021;-84
2022/06/12 07:51:10;;;;;;;24.15;4.95;;;;;;;18.30;100.00;101439.38;4857536;29;20037;-84
2022/06/12 07:53:37;;;;;;;25.00;5.38;;;;;;;18.36;100.00;101443.91;4869470;29;20078;-83
2022/06/12 07:56:03;;;;;;;28.88;5.40;;;;;;;18.37;100.00;101433.81;4855181;29;20053;-85
2022/06/12 07:58:28;;;;;;;25.17;4.72;;;;;;;18.49;100.00;101442.84;4870440;29;20587;-83
2022/06/12 08:00:58;;;;;;;24.92;5.15;;;;;;;18.30;100.00;101423.88;4869900;29;20069;-84
2022/06/12 08:03:24;;;;;;;19.42;4.68;;;;;;;18.46;100.00;101438.69;4869736;29;20039;-81
2022/06/12 08:05:50;;;;;;;20.27;4.63;;;;;;;18.54;100.00;101437.50;4855268;29;20029;-83
2022/06/12 08:08:15;;;;;;;22.42;4.53;;;;;;;18.66;100.00;101423.88;4883950;29;20037;-83
2022/06/12 08:10:41;;;;;;;20.45;4.15;;;;;;;18.82;100.00;101422.38;4869246;29;20030;-81
2022/06/12 08:13:13;;;;;;;18.10;4.40;;;;;;;19.13;100.00;101427.41;4852731;29;20424;-83
2022/06/12 08:15:41;;;;;;;27.45;5.25;;;;;;;19.25;100.00;101425.47;4870976;29;20025;-82
2022/06/12 08:18:07;;;;;;;24.00;4.88;;;;;;;19.44;100.00;101430.78;4854211;29;20025;-84
2022/06/12 08:20:36;;;;;;;20.13;4.20;;;;;;;19.50;100.00;101429.78;4854246;29;20085;-82
2022/06/12 08:23:33;;;;;;;18.60;5.20;;;;;;;19.58;100.00;101418.47;4868443;29;20046;-83
2022/06/12 08:26:21;;;;;;;19.33;4.50;;;;;;;19.76;100.00;101409.28;4852186;29;20041;-83
2022/06/12 08:29:13;;;;;;;20.08;4.00;;;;;;;19.91;100.00;101422.38;4860832;29;20036;-84
2022/06/12 08:31:45;;;;;;;18.98;4.60;;;;;;;19.90;100.00;101394.25;4875821;29;20115;-83
2022/06/12 08:34:15;;;;;;;20.50;4.63;;;;;;;19.95;100.00;101404.44;4871406;29;20040;-83
2022/06/12 08:36:41;;;;;;;20.05;4.75;;;;;;;19.94;100.00;101408.25;4886648;29;20021;-83
2022/06/12 08:39:07;;;;;;;18.65;4.70;;;;;;;19.70;100.00;101402.06;4890895;29;20044;-83
2022/06/12 08:41:41;;;;;;;28.42;5.03;;;;;;;19.59;100.00;101397.47;4891700;29;20494;-85
2022/06/12 08:44:10;;;;;;;21.33;4.75;;;;;;;19.64;100.00;101409.34;4893098;29;20373;-83
2022/06/12 08:46:53;;;;;;;21.42;4.80;;;;;;;19.44;100.00;101387.09;4885774;29;20063;-84
2022/06/12 08:49:27;;;;;;;20.00;4.88;;;;;;;19.34;100.00;101400.56;4862497;29;20055;-83
2022/06/12 08:51:59;;;;;;;22.90;5.07;;;;;;;19.24;100.00;101407.47;4872948;29;20512;-82
2022/06/12 08:54:36;;;;;;;19.58;4.68;;;;;;;19.18;100.00;101400.25;4857618;29;20463;-83
2022/06/12 08:57:09;;;;;;;20.55;4.38;;;;;;;19.14;100.00;101409.13;4873797;29;20029;-83
2022/06/12 08:59:46;;;;;;;18.27;4.15;;;;;;;19.18;100.00;101415.78;4873482;29;20097;-83
2022/06/12 09:02:21;;;;;;;17.55;3.80;;;;;;;19.30;100.00;101410.28;4879526;29;20029;-83
2022/06/12 09:04:47;;;;;;;21.52;4.82;;;;;;;19.28;100.00;101404.25;4874493;29;20041;-82
2022/06/12 09:07:24;;;;;;;20.98;4.50;;;;;;;19.31;100.00;101395.59;4881484;29;20033;-83
2022/06/12 09:10:08;;;;;;;21.38;5.03;;;;;;;19.56;100.00;101397.94;4874672;29;20033;-81
2022/06/12 09:12:44;;;;;;;21.92;4.90;;;;;;;19.68;100.00;101402.31;4873657;29;20475;-82
2022/06/12 09:15:26;;;;;;;23.80;5.70;;;;;;;19.83;100.00;101392.72;4856150;29;20058;-83
2022/06/12 09:18:29;;;;;;;23.73;5.07;;;;;;;20.10;100.00;101393.78;4857149;29;20068;-82
2022/06/12 09:21:28;;;;;;;20.27;4.63;;;;;;;20.16;100.00;101392.78;4879408;29;20035;-84
2022/06/12 09:24:02;;;;;;;24.83;5.38;;;;;;;20.18;100.00;101385.13;4886401;29;20037;-84
2022/06/12 09:26:46;;;;;;;;;;;;;;;20.19;100.00;101389.53;4872294;29;20029;-84
2022/06/12 09:29:31;;;;;;;22.00;5.47;;;;;;;20.25;100.00;101389.63;4863376;29;20000;-83
2022/06/12 09:32:24;;;;;;;27.75;5.25;;;;;;;19.92;100.00;101377.59;4855706;29;20451;-83
2022/06/12 09:34:58;;;;;;;24.42;5.25;;;;;;;19.78;100.00;101384.47;4856655;29;20042;-82
2022/06/12 09:40:43;;;;;;;29.38;5.70;;;;;;;19.47;100.00;101372.97;4873536;29;20467;-81
2022/06/12 09:43:33;;;;;;;22.17;4.90;;;;;;;19.64;100.00;101379.31;4871167;29;20559;-83
2022/06/12 09:46:09;;;;;;;24.27;4.82;;;;;;;19.69;100.00;101373.94;4855898;29;20121;-82
2022/06/12 09:48:34;;;;;;;23.13;5.15;;;;;;;19.62;100.00;101377.88;4874825;29;20052;-84
2022/06/12 09:51:29;;;;;;;25.52;5.28;;;;;;;19.17;100.00;101371.31;4874744;29;20029;-83
2022/06/12 09:53:57;;;;;;;23.23;4.82;;;;;;;19.19;100.00;101390.97;4845769;29;20033;-83
2022/06/12 09:56:33;;;;;;;21.40;4.65;;;;;;;19.04;100.00;101362.56;4872923;29;20029;-83
2022/06/12 09:59:15;;;;;;;20.40;5.05;;;;;;;19.15;100.00;101370.72;4854642;29;20062;-82
2022/06/12 10:01:45;;;;;;;26.52;4.63;;;;;;;19.18;100.00;101355.75;4871359;29;20029;-83
2022/06/12 10:04:30;;;;;;;18.98;4.68;;;;;;;19.57;100.00;101366.84;4855799;29;20033;-82
2022/06/12 10:06:58;;;;;;;;;;;;;;;20.00;100.00;101360.81;4858834;29;20456;-83
2022/06/12 10:09:37;;;;;;;24.13;4.95;;;;;;;20.33;100.00;101346.31;4865400;29;19916;-84
2022/06/12 10:12:07;;;;;;;21.10;4.75;;;;;;;20.52;100.00;101321.44;4873936;29;20028;-83
2022/06/12 10:14:37;;;;;;;17.63;4.28;;;;;;;20.55;100.00;101337.31;4872396;29;20123;-83
2022/06/12 10:17:11;;;;;;;20.95;4.45;;;;;;;20.45;100.00;101335.25;4893318;29;20057;-81
2022/06/12 10:19:43;;;;;;;24.50;5.00;;;;;;;20.34;100.00;101328.00;4877720;29;20033;-83
2022/06/12 10:22:23;;;;;;;19.35;4.53;;;;;;;20.32;100.00;101335.59;4875692;29;20056;-83
2022/06/12 10:24:49;;;;;;;19.48;4.57;;;;;;;20.23;100.00;101321.56;4866996;29;20022;-83
2022/06/12 10:27:16;;;;;;;22.60;4.63;;;;;;;20.19;100.00;101326.66;4870992;29;20045;-85
2022/06/12 10:29:50;;;;;;;18.52;4.60;;;;;;;20.03;100.00;101326.69;4900691;29;20036;-83
2022/06/12 10:32:21;;;;;;;17.38;4.40;;;;;;;19.82;100.00;101331.84;4874188;29;20036;-83
2022/06/12 10:34:47;;;;;;;22.85;4.93;;;;;;;19.39;100.00;101321.50;4889086;29;20064;-84
2022/06/12 10:37:22;;;;;;;20.77;4.85;;;;;;;19.36;100.00;101327.44;4888998;29;20464;-82
2022/06/12 10:40:03;;;;;;;25.20;5.00;;;;;;;19.28;100.00;101327.84;4869972;29;20025;-83
2022/06/12 10:43:09;;;;;;;20.00;4.57;;;;;;;19.33;100.00;101308.81;4872591;29;20029;-81
2022/06/12 10:45:37;;;;;;;20.65;4.10;;;;;;;19.52;100.00;101314.91;4847030;29;20424;-82
2022/06/12 10:48:23;;;;;;;18.38;4.22;;;;;;;19.62;100.00;101312.34;4887575;29;20189;-80
2022/06/12 10:50:52;;;;;;;21.73;4.80;;;;;;;19.80;100.00;101311.31;4881318;29;20069;-82
2022/06/12 10:53:20;;;;;;;19.95;4.63;;;;;;;19.98;100.00;101308.31;4899967;29;20046;-82
2022/06/12 10:56:02;;;;;;;20.73;3.80;;;;;;;20.17;100.00;101311.63;4880957;29;20036;-83
2022/06/12 10:58:36;;;;;;;17.60;3.95;;;;;;;20.36;100.00;101317.63;4854545;29;20033;-81
2022/06/12 11:01:15;;;;;;;21.05;4.57;;;;;;;20.69;100.00;101302.22;4855510;29;20041;-83
2022/06/12 11:03:50;;;;;;;18.60;4.30;;;;;;;20.81;100.00;101305.66;4872914;29;20070;-83
2022/06/12 11:06:25;;;;;;;18.92;4.18;;;;;;;20.68;100.00;101289.66;4872842;29;20032;-83
2022/06/12 11:08:51;;;;;;;18.35;3.85;;;;;;;20.84;100.00;101305.16;4888326;29;20029;-81
2022/06/12 11:11:25;;;;;;;21.50;4.85;;;;;;;20.83;100.00;101298.88;4890440;29;20067;-82
2022/06/12 11:14:16;;;;;;;24.90;4.50;;;;;;;20.99;100.00;101299.88;4888590;29;20100;-85
2022/06/12 11:16:55;;;;;;;19.55;3.85;;;;;;;20.86;100.00;101302.97;4873608;29;20067;-81
2022/06/12 11:19:38;;;;;;;21.40;4.13;;;;;;;20.82;100.00;101301.84;4886943;29;20052;-84
2022/06/12 11:22:38;;;;;;;18.23;3.97;;;;;;;20.75;100.00;101296.56;4888253;29;20467;-82
2022/06/12 11:25:21;;;;;;;15.55;3.80;;;;;;;20.36;100.00;101290.28;4869978;29;20388;-83
2022/06/12 11:28:14;;;;;;;18.38;4.32;;;;;;;20.12;100.00;101292.41;4869821;29;20031;-82
2022/06/12 11:31:08;;;;;;;14.55;3.72;;;;;;;19.86;100.00;101292.00;4865026;29;20073;-83
2022/06/12 11:33:49;;;;;;;8.45;2.30;;;;;;;19.83;98.90;101287.06;4869400;29;20466;-82
2022/06/12 11:36:31;;;;;;;8.80;2.17;;;;;;;19.93;93.87;101280.91;4860287;29;20376;-84
2022/06/12 11:39:06;;;;;;;8.40;2.15;;;;;;;20.12;91.58;101293.22;4873264;29;20116;-84
2022/06/12 11:41:46;;;;;;;6.60;2.13;;;;;;;20.16;90.01;101294.41;4890037;29;20041;-83
2022/06/12 11:44:39;;;;;;;9.65;2.58;;;;;;;20.04;90.47;101281.94;4859105;29;20049;-83
2022/06/12 11:47:34;;;;;;;13.48;2.63;;;;;;;20.07;93.27;101279.53;4855472;29;20468;-83
2022/06/12 11:50:14;;;;;;;;;;;;;;;20.45;95.80;101277.03;4857012;29;20487;-83
2022/06/12 11:52:42;;;;;;;18.77;3.85;;;;;;;20.34;97.79;101279.63;4881709;29;19916;-84
2022/06/12 11:55:22;;;;;;;18.35;4.13;;;;;;;20.03;100.00;101272.06;4883507;29;20033;-83